Time;durP1;ratioP1;P1;durP2;ratioP2;P2;SDS_P1;SDS_P2;PMS_P1;PMS_P2;Temp;Humidity;BMP_temperature;BMP_pressure;BME280_temperature;BME280_humidity;BME280_pressure;Samples;Min_cycle;Max_cycle;Signal;HPM_P1;HPM_P2
2022/03/24 00:00:25;;;;;;;38.67;21.50;;;;;;;;;;5030471;28;20479;-64
2022/03/24 00:02:51;;;;;;;44.92;20.58;;;;;;;;;;5031065;28;20080;-64
2022/03/24 00:05:17;;;;;;;43.38;21.98;;;;;;;;;;5032370;28;20029;-64
2022/03/24 00:07:44;;;;;;;43.20;22.05;;;;;;;;;;5030350;28;20136;-64
2022/03/24 00:10:10;;;;;;;40.42;20.60;;;;;;;;;;5028377;28;20110;-64
2022/03/24 00:12:36;;;;;;;42.22;21.73;;;;;;;;;;5030327;28;20502;-64
2022/03/24 00:15:03;;;;;;;42.85;21.90;;;;;;;;;;5032009;28;20045;-64
2022/03/24 00:17:30;;;;;;;42.70;20.98;;;;;;;;;;5032010;28;20096;-64
2022/03/24 00:19:56;;;;;;;43.63;22.05;;;;;;;;;;5032510;28;20522;-64
2022/03/24 00:22:23;;;;;;;39.60;21.70;;;;;;;;;;5012916;28;20041;-64
2022/03/24 00:24:49;;;;;;;48.38;23.48;;;;;;;;;;5030591;28;20045;-64
2022/03/24 00:27:15;;;;;;;36.97;19.95;;;;;;;;;;5029482;28;20060;-64
2022/03/24 00:29:42;;;;;;;47.53;21.83;;;;;;;;;;5027966;28;20045;-64
2022/03/24 00:32:09;;;;;;;38.08;20.98;;;;;;;;;;5031071;28;20175;-64
2022/03/24 00:34:35;;;;;;;36.47;19.50;;;;;;;;;;5013574;28;20045;-64
2022/03/24 00:37:03;;;;;;;43.83;20.08;;;;;;;;;;5036871;28;20053;-64
2022/03/24 00:39:33;;;;;;;36.75;20.08;;;;;;;;;;5035047;28;20125;-64
2022/03/24 00:42:01;;;;;;;41.92;18.83;;;;;;;;;;5036762;28;20052;-64
2022/03/24 00:44:27;;;;;;;37.90;18.67;;;;;;;;;;5037237;28;20104;-65
2022/03/24 00:46:54;;;;;;;35.22;19.88;;;;;;;;;;5034036;28;20096;-64
2022/03/24 00:49:21;;;;;;;36.13;18.42;;;;;;;;;;5040180;28;20044;-64
2022/03/24 00:51:48;;;;;;;39.65;21.33;;;;;;;;;;5031785;28;20053;-64
2022/03/24 00:54:16;;;;;;;43.88;21.20;;;;;;;;;;5036147;28;20040;-64
2022/03/24 00:56:43;;;;;;;38.13;19.60;;;;;;;;;;5020422;28;20079;-64
2022/03/24 00:59:09;;;;;;;45.80;20.65;;;;;;;;;;5035545;28;20547;-65
2022/03/24 01:01:39;;;;;;;42.58;20.90;;;;;;;;;;5031650;28;20084;-64
2022/03/24 01:04:06;;;;;;;34.47;19.92;;;;;;;;;;5032989;28;20049;-63
2022/03/24 01:06:34;;;;;;;44.65;22.33;;;;;;;;;;5035175;28;20052;-63
2022/03/24 01:09:01;;;;;;;41.30;20.85;;;;;;;;;;5038474;28;20383;-63
2022/03/24 01:11:27;;;;;;;41.40;21.02;;;;;;;;;;5035259;28;20501;-63
2022/03/24 01:13:53;;;;;;;45.13;21.92;;;;;;;;;;5034577;28;20411;-63
2022/03/24 01:16:22;;;;;;;46.50;21.50;;;;;;;;;;5034610;28;20045;-64
2022/03/24 01:18:48;;;;;;;40.08;21.23;;;;;;;;;;5035822;28;20252;-64
2022/03/24 01:21:16;;;;;;;48.10;21.80;;;;;;;;;;5032680;28;20036;-64
2022/03/24 01:23:44;;;;;;;44.22;20.52;;;;;;;;;;5017506;28;20061;-64
2022/03/24 01:26:11;;;;;;;42.35;21.65;;;;;;;;;;5016008;28;20051;-64
2022/03/24 01:28:39;;;;;;;42.60;22.05;;;;;;;;;;5034967;28;20061;-64
2022/03/24 01:31:08;;;;;;;41.67;21.17;;;;;;;;;;5033965;28;20160;-64
2022/03/24 01:33:34;;;;;;;42.97;23.02;;;;;;;;;;5017377;28;20053;-64
2022/03/24 01:36:01;;;;;;;43.10;22.35;;;;;;;;;;5036856;28;20697;-63
2022/03/24 01:38:27;;;;;;;42.83;22.40;;;;;;;;;;5032047;28;20380;-63
2022/03/24 01:40:53;;;;;;;47.30;21.02;;;;;;;;;;5033431;28;20087;-63
2022/03/24 01:43:19;;;;;;;50.33;21.48;;;;;;;;;;5036248;28;20045;-63
2022/03/24 01:45:45;;;;;;;38.63;21.08;;;;;;;;;;5034083;28;20049;-63
2022/03/24 01:48:14;;;;;;;44.00;21.88;;;;;;;;;;5031498;28;20549;-63
2022/03/24 01:50:40;;;;;;;43.55;21.40;;;;;;;;;;5032711;28;20042;-64
2022/03/24 01:53:06;;;;;;;45.50;21.88;;;;;;;;;;5037564;28;20670;-64
2022/03/24 01:55:34;;;;;;;44.05;21.75;;;;;;;;;;5036313;28;20580;-64
2022/03/24 01:58:01;;;;;;;52.53;22.50;;;;;;;;;;5035309;28;20048;-64
2022/03/24 02:00:28;;;;;;;41.50;21.50;;;;;;;;;;5037799;28;20044;-64
2022/03/24 02:02:54;;;;;;;45.03;21.08;;;;;;;;;;5032292;28;20525;-64
2022/03/24 02:05:20;;;;;;;38.33;19.40;;;;;;;;;;5034302;28;20041;-64
2022/03/24 02:07:46;;;;;;;49.40;21.52;;;;;;;;;;5034157;28;20051;-64
2022/03/24 02:10:13;;;;;;;39.67;21.77;;;;;;;;;;5035001;28;20191;-64
2022/03/24 02:12:39;;;;;;;42.65;21.70;;;;;;;;;;5034711;28;20037;-64
2022/03/24 02:15:05;;;;;;;45.92;21.95;;;;;;;;;;5016132;28;20513;-64
2022/03/24 02:17:32;;;;;;;42.17;22.05;;;;;;;;;;5033512;28;20052;-63
2022/03/24 02:19:58;;;;;;;47.63;22.48;;;;;;;;;;5034978;28;20040;-65
2022/03/24 02:22:26;;;;;;;41.90;21.38;;;;;;;;;;5035894;28;20064;-64
2022/03/24 02:24:52;;;;;;;39.77;21.53;;;;;;;;;;5013694;28;20044;-64
2022/03/24 02:27:19;;;;;;;40.63;21.27;;;;;;;;;;5036864;28;20048;-64
2022/03/24 02:29:47;;;;;;;40.75;21.58;;;;;;;;;;5029401;28;20048;-65
2022/03/24 02:32:17;;;;;;;40.90;19.83;;;;;;;;;;5037507;28;20091;-65
2022/03/24 02:34:50;;;;;;;42.40;22.08;;;;;;;;;;5028735;28;20045;-64
2022/03/24 02:37:19;;;;;;;37.40;19.73;;;;;;;;;;5034557;28;20171;-64
2022/03/24 02:39:46;;;;;;;41.90;19.98;;;;;;;;;;5035923;28;20045;-65
2022/03/24 02:42:15;;;;;;;38.45;18.63;;;;;;;;;;5031152;28;20438;-65
2022/03/24 02:44:44;;;;;;;42.08;20.95;;;;;;;;;;5030652;28;20513;-65
2022/03/24 02:47:11;;;;;;;37.20;19.90;;;;;;;;;;5018587;28;20073;-65
2022/03/24 02:49:38;;;;;;;41.33;19.50;;;;;;;;;;5033147;28;20044;-65
2022/03/24 02:52:05;;;;;;;40.10;19.67;;;;;;;;;;5031949;28;20099;-65
2022/03/24 02:54:31;;;;;;;32.35;18.60;;;;;;;;;;5033623;28;20170;-65
2022/03/24 02:56:58;;;;;;;41.70;20.35;;;;;;;;;;5035058;28;20040;-65
2022/03/24 02:59:24;;;;;;;43.65;21.45;;;;;;;;;;5031945;28;20033;-65
2022/03/24 03:01:52;;;;;;;40.45;22.08;;;;;;;;;;5014633;28;20079;-65
2022/03/24 03:04:18;;;;;;;47.50;22.65;;;;;;;;;;5027756;28;20123;-64
2022/03/24 03:06:45;;;;;;;47.83;21.73;;;;;;;;;;5032786;28;21359;-65
2022/03/24 03:09:18;;;;;;;38.78;21.55;;;;;;;;;;5034463;28;20063;-65
2022/03/24 03:11:45;;;;;;;42.70;22.92;;;;;;;;;;5032691;28;20049;-65
2022/03/24 03:14:12;;;;;;;40.55;20.90;;;;;;;;;;5033054;28;20174;-65
2022/03/24 03:16:39;;;;;;;45.65;22.45;;;;;;;;;;5036000;28;20057;-65
2022/03/24 03:19:08;;;;;;;49.90;22.23;;;;;;;;;;5034386;28;20376;-65
2022/03/24 03:21:34;;;;;;;;;;;;;;;;;;5029679;28;20053;-64
2022/03/24 03:24:00;;;;;;;42.22;19.42;;;;;;;;;;5032928;28;19943;-64
2022/03/24 03:26:26;;;;;;;42.03;21.30;;;;;;;;;;5033564;28;20045;-64
2022/03/24 03:28:52;;;;;;;43.33;20.75;;;;;;;;;;5031309;28;20072;-63
2022/03/24 03:31:20;;;;;;;39.28;19.77;;;;;;;;;;5035020;28;20174;-63
2022/03/24 03:33:46;;;;;;;51.53;22.35;;;;;;;;;;5032965;28;20060;-63
2022/03/24 03:36:13;;;;;;;49.78;22.15;;;;;;;;;;5033404;28;20132;-63
2022/03/24 03:38:39;;;;;;;55.17;22.83;;;;;;;;;;5033328;28;20617;-63
2022/03/24 03:41:06;;;;;;;46.78;23.75;;;;;;;;;;5033924;28;20049;-63
2022/03/24 03:43:33;;;;;;;50.08;23.98;;;;;;;;;;5019453;28;20049;-63
2022/03/24 03:46:01;;;;;;;44.30;24.60;;;;;;;;;;5032099;28;20087;-63
2022/03/24 03:48:27;;;;;;;51.40;24.92;;;;;;;;;;5030216;28;20049;-64
2022/03/24 03:50:53;;;;;;;58.40;25.00;;;;;;;;;;5034942;28;20709;-64
2022/03/24 03:53:19;;;;;;;51.58;24.08;;;;;;;;;;5031641;28;20141;-64
2022/03/24 03:55:45;;;;;;;48.55;23.75;;;;;;;;;;5031757;28;20053;-63
2022/03/24 03:58:11;;;;;;;45.38;24.00;;;;;;;;;;5033157;28;20048;-63
2022/03/24 04:00:53;;;;;;;50.13;24.77;;;;;;;;;;5032927;28;20850;-64
2022/03/24 04:03:19;;;;;;;47.35;24.73;;;;;;;;;;5034662;28;20049;-64
2022/03/24 04:05:45;;;;;;;47.90;24.50;;;;;;;;;;5014758;28;20386;-63
2022/03/24 04:08:12;;;;;;;53.13;25.17;;;;;;;;;;5028231;28;20449;-64
2022/03/24 04:10:39;;;;;;;50.47;25.50;;;;;;;;;;5032488;28;20511;-63
2022/03/24 04:13:06;;;;;;;48.85;25.05;;;;;;;;;;5016087;28;20049;-63
2022/03/24 04:15:33;;;;;;;55.50;25.90;;;;;;;;;;5039133;28;20053;-63
2022/03/24 04:17:59;;;;;;;56.20;27.75;;;;;;;;;;5036899;28;20124;-64
2022/03/24 04:20:26;;;;;;;53.30;25.48;;;;;;;;;;5038738;28;20053;-63
2022/03/24 04:22:53;;;;;;;54.63;25.55;;;;;;;;;;5034147;28;20815;-63
2022/03/24 04:25:20;;;;;;;55.67;26.13;;;;;;;;;;5031947;28;20455;-63
2022/03/24 04:27:46;;;;;;;48.08;25.60;;;;;;;;;;5036108;28;20045;-63
2022/03/24 04:30:13;;;;;;;51.22;25.48;;;;;;;;;;5034746;28;20050;-63
2022/03/24 04:32:39;;;;;;;54.40;27.63;;;;;;;;;;5036958;28;20676;-63
2022/03/24 04:35:06;;;;;;;57.28;28.25;;;;;;;;;;5035773;28;20088;-63
2022/03/24 04:37:33;;;;;;;52.13;27.55;;;;;;;;;;5038478;28;20058;-63
2022/03/24 04:39:59;;;;;;;50.83;25.92;;;;;;;;;;5032539;28;20805;-63
2022/03/24 04:42:25;;;;;;;53.95;27.38;;;;;;;;;;5035260;28;20045;-63
2022/03/24 04:44:51;;;;;;;55.33;28.08;;;;;;;;;;5034635;28;20041;-63
2022/03/24 04:47:18;;;;;;;56.00;29.27;;;;;;;;;;5037010;28;20064;-63
2022/03/24 04:49:44;;;;;;;50.67;26.75;;;;;;;;;;5034891;28;20407;-63
2022/03/24 04:52:10;;;;;;;60.38;29.80;;;;;;;;;;5035979;28;20129;-63
2022/03/24 04:54:36;;;;;;;56.15;28.48;;;;;;;;;;5039448;28;20056;-63
2022/03/24 04:57:03;;;;;;;57.90;29.38;;;;;;;;;;5035683;28;20522;-63
2022/03/24 04:59:29;;;;;;;57.60;29.15;;;;;;;;;;5037778;28;20072;-63
2022/03/24 05:01:56;;;;;;;55.03;26.40;;;;;;;;;;5039466;28;20033;-64
2022/03/24 05:04:23;;;;;;;51.90;24.95;;;;;;;;;;5039182;28;20465;-63
2022/03/24 05:06:50;;;;;;;52.00;24.42;;;;;;;;;;5034859;28;20068;-63
2022/03/24 05:09:16;;;;;;;50.90;23.08;;;;;;;;;;5037757;28;20568;-63
2022/03/24 05:12:12;;;;;;;50.92;26.83;;;;;;;;;;5040036;28;20059;-63
2022/03/24 05:17:47;;;;;;;49.92;24.83;;;;;;;;;;5017157;28;20049;-63
2022/03/24 05:20:14;;;;;;;43.75;22.35;;;;;;;;;;5001159;28;20049;-63
2022/03/24 05:22:40;;;;;;;46.08;23.15;;;;;;;;;;5008113;28;20061;-62
2022/03/24 05:25:07;;;;;;;51.40;25.38;;;;;;;;;;5016263;28;20084;-63
2022/03/24 05:27:34;;;;;;;56.13;26.15;;;;;;;;;;5016521;28;20060;-63
2022/03/24 05:30:00;;;;;;;53.78;25.48;;;;;;;;;;5015697;28;20045;-62
2022/03/24 05:32:27;;;;;;;51.50;25.45;;;;;;;;;;5014230;28;20045;-63
2022/03/24 05:34:54;;;;;;;36.83;19.63;;;;;;;;;;5021631;28;20492;-63
2022/03/24 05:37:20;;;;;;;46.97;23.23;;;;;;;;;;5017576;28;20407;-63
2022/03/24 05:39:46;;;;;;;48.00;24.20;;;;;;;;;;5015490;28;20509;-62
2022/03/24 05:42:13;;;;;;;51.70;25.58;;;;;;;;;;5010831;28;20053;-62
2022/03/24 05:44:39;;;;;;;54.67;27.63;;;;;;;;;;5016042;28;20053;-62
2022/03/24 05:47:05;;;;;;;64.00;30.70;;;;;;;;;;5012886;28;20060;-62
2022/03/24 05:49:31;;;;;;;57.85;30.58;;;;;;;;;;4995556;28;20532;-63
2022/03/24 05:51:57;;;;;;;59.03;29.90;;;;;;;;;;5017298;28;20506;-61
2022/03/24 05:54:24;;;;;;;70.93;33.03;;;;;;;;;;5014471;28;20647;-63
2022/03/24 05:56:50;;;;;;;64.18;31.60;;;;;;;;;;5019013;28;20057;-63
2022/03/24 05:59:16;;;;;;;75.47;32.88;;;;;;;;;;5016109;28;20057;-63
2022/03/24 06:01:44;;;;;;;69.63;33.47;;;;;;;;;;5006457;28;20037;-64
2022/03/24 06:04:16;;;;;;;71.63;35.05;;;;;;;;;;5014930;28;20042;-64
2022/03/24 06:06:43;;;;;;;63.15;31.73;;;;;;;;;;5013894;28;20067;-64
2022/03/24 06:09:09;;;;;;;76.07;34.42;;;;;;;;;;5013946;28;20124;-62
2022/03/24 06:11:36;;;;;;;63.22;31.90;;;;;;;;;;5011524;28;20048;-63
2022/03/24 06:14:03;;;;;;;59.42;28.95;;;;;;;;;;5016030;28;20514;-64
2022/03/24 06:16:30;;;;;;;63.10;31.33;;;;;;;;;;5018068;28;20058;-63
2022/03/24 06:18:56;;;;;;;76.90;32.15;;;;;;;;;;5022572;28;20061;-64
2022/03/24 06:21:23;;;;;;;58.17;29.95;;;;;;;;;;5016244;28;20053;-64
2022/03/24 06:23:50;;;;;;;64.78;31.48;;;;;;;;;;5014248;28;20057;-63
2022/03/24 06:26:18;;;;;;;65.10;31.55;;;;;;;;;;5005639;28;20041;-63
2022/03/24 06:28:44;;;;;;;68.70;33.67;;;;;;;;;;5017919;28;20607;-63
2022/03/24 06:31:12;;;;;;;72.18;34.17;;;;;;;;;;5028017;28;20047;-64
2022/03/24 06:33:39;;;;;;;75.97;36.15;;;;;;;;;;5011564;28;20069;-63
2022/03/24 06:36:05;;;;;;;77.07;35.22;;;;;;;;;;5017442;28;20045;-64
2022/03/24 06:38:31;;;;;;;72.40;34.67;;;;;;;;;;5000756;28;20114;-64
2022/03/24 06:40:57;;;;;;;66.85;32.55;;;;;;;;;;5019830;28;20078;-64
2022/03/24 06:43:24;;;;;;;70.40;34.88;;;;;;;;;;5019348;28;20411;-64
2022/03/24 06:45:51;;;;;;;68.75;34.28;;;;;;;;;;5018088;28;20053;-63
2022/03/24 06:48:17;;;;;;;70.13;35.22;;;;;;;;;;5007897;28;20041;-63
2022/03/24 06:50:43;;;;;;;74.60;36.22;;;;;;;;;;4996256;28;20088;-63
2022/03/24 06:53:09;;;;;;;75.70;36.95;;;;;;;;;;5016426;28;20496;-63
2022/03/24 06:55:35;;;;;;;76.47;37.20;;;;;;;;;;4998963;28;20831;-63
2022/03/24 06:58:02;;;;;;;75.57;37.17;;;;;;;;;;5015221;28;20049;-63
2022/03/24 07:00:29;;;;;;;80.28;37.55;;;;;;;;;;5011468;28;20416;-63
2022/03/24 07:02:55;;;;;;;75.63;37.88;;;;;;;;;;4996417;28;20505;-63
2022/03/24 07:05:21;;;;;;;76.93;38.53;;;;;;;;;;5013000;28;20038;-63
2022/03/24 07:07:47;;;;;;;76.82;38.70;;;;;;;;;;5016306;28;20067;-64
2022/03/24 07:10:15;;;;;;;78.20;39.72;;;;;;;;;;5014894;28;20443;-64
2022/03/24 07:12:41;;;;;;;75.80;38.33;;;;;;;;;;5012469;28;20060;-64
2022/03/24 07:15:10;;;;;;;73.80;39.22;;;;;;;;;;5017871;28;20409;-63
2022/03/24 07:17:36;;;;;;;;;;;;;;;;;;5011169;28;20061;-64
2022/03/24 07:20:03;;;;;;;78.45;38.47;;;;;;;;;;5011821;28;19928;-64
2022/03/24 07:22:33;;;;;;;76.40;40.55;;;;;;;;;;5012178;28;20675;-64
2022/03/24 07:24:59;;;;;;;82.50;41.08;;;;;;;;;;5008189;28;21485;-63
2022/03/24 07:27:25;;;;;;;79.80;40.63;;;;;;;;;;4999510;28;20050;-64
2022/03/24 07:29:51;;;;;;;85.70;42.50;;;;;;;;;;5000333;28;20046;-63
2022/03/24 07:32:18;;;;;;;87.82;43.92;;;;;;;;;;5000710;28;20447;-63
2022/03/24 07:34:44;;;;;;;85.80;41.88;;;;;;;;;;4999010;28;20069;-63
2022/03/24 07:37:10;;;;;;;82.68;40.70;;;;;;;;;;5000378;28;20045;-63
2022/03/24 07:39:36;;;;;;;80.80;41.90;;;;;;;;;;4999180;28;20056;-63
2022/03/24 07:42:03;;;;;;;83.95;42.83;;;;;;;;;;4999137;28;20456;-64
2022/03/24 07:44:29;;;;;;;82.53;40.83;;;;;;;;;;4981898;28;20057;-64
2022/03/24 07:46:55;;;;;;;70.40;37.45;;;;;;;;;;4999492;28;20128;-64
2022/03/24 07:49:21;;;;;;;74.57;36.58;;;;;;;;;;5000173;28;20479;-64
2022/03/24 07:51:48;;;;;;;74.55;36.72;;;;;;;;;;4999184;28;20072;-63
2022/03/24 07:54:14;;;;;;;62.45;33.47;;;;;;;;;;4999024;28;20526;-64
2022/03/24 07:56:40;;;;;;;70.38;33.22;;;;;;;;;;4981545;28;20049;-64
2022/03/24 07:59:07;;;;;;;71.15;35.00;;;;;;;;;;4999731;28;20053;-64
2022/03/24 08:01:34;;;;;;;76.78;37.97;;;;;;;;;;4999354;28;20077;-64
2022/03/24 08:04:03;;;;;;;68.65;34.70;;;;;;;;;;4999423;28;20515;-63
2022/03/24 08:06:30;;;;;;;74.80;33.55;;;;;;;;;;4999310;28;20045;-64
2022/03/24 08:08:57;;;;;;;68.38;35.20;;;;;;;;;;5000113;28;20050;-64
2022/03/24 08:11:25;;;;;;;65.65;33.70;;;;;;;;;;4999151;28;20037;-64
2022/03/24 08:13:54;;;;;;;72.40;34.93;;;;;;;;;;5000089;28;20053;-64
2022/03/24 08:16:21;;;;;;;72.68;34.67;;;;;;;;;;4998428;28;20367;-63
2022/03/24 08:18:48;;;;;;;68.70;33.93;;;;;;;;;;5005434;28;20041;-64
2022/03/24 08:21:14;;;;;;;70.60;32.47;;;;;;;;;;5019747;28;20124;-63
2022/03/24 08:23:40;;;;;;;66.47;35.65;;;;;;;;;;4998273;28;20042;-64
2022/03/24 08:26:06;;;;;;;64.80;33.85;;;;;;;;;;4998918;28;20136;-64
2022/03/24 08:28:33;;;;;;;63.03;33.80;;;;;;;;;;5009218;28;20808;-64
2022/03/24 08:30:59;;;;;;;62.25;28.58;;;;;;;;;;5018961;28;20045;-64
2022/03/24 08:33:25;;;;;;;62.70;30.05;;;;;;;;;;5018338;28;20045;-64
2022/03/24 08:35:52;;;;;;;61.70;30.77;;;;;;;;;;5020222;28;20049;-64
2022/03/24 08:38:18;;;;;;;65.35;31.75;;;;;;;;;;5018621;28;20100;-64
2022/03/24 08:40:44;;;;;;;66.82;33.75;;;;;;;;;;5001316;28;20708;-65
2022/03/24 08:43:10;;;;;;;53.15;28.40;;;;;;;;;;5017622;28;20772;-65
2022/03/24 08:45:37;;;;;;;66.07;32.30;;;;;;;;;;5018340;28;20048;-65
2022/03/24 08:48:05;;;;;;;57.42;31.05;;;;;;;;;;5001068;28;20049;-65
2022/03/24 08:50:32;;;;;;;63.78;31.23;;;;;;;;;;5017870;28;20053;-65
2022/03/24 08:52:58;;;;;;;68.57;30.45;;;;;;;;;;5018657;28;20616;-65
2022/03/24 08:55:24;;;;;;;61.65;30.90;;;;;;;;;;5011913;28;20054;-65
2022/03/24 08:57:51;;;;;;;53.45;26.35;;;;;;;;;;5014492;28;20048;-65
2022/03/24 09:00:17;;;;;;;55.35;27.23;;;;;;;;;;5021658;28;20045;-65
2022/03/24 09:02:45;;;;;;;50.00;26.33;;;;;;;;;;5022664;28;20547;-65
2022/03/24 09:05:11;;;;;;;51.63;25.02;;;;;;;;;;5021768;28;20049;-65
2022/03/24 09:07:37;;;;;;;49.83;24.83;;;;;;;;;;5022584;28;20460;-65
2022/03/24 09:10:06;;;;;;;47.97;25.80;;;;;;;;;;5021731;28;20068;-65
2022/03/24 09:12:34;;;;;;;57.28;25.77;;;;;;;;;;5021308;28;20049;-65
2022/03/24 09:15:00;;;;;;;62.97;27.50;;;;;;;;;;5021396;28;20458;-65
2022/03/24 09:17:27;;;;;;;52.55;25.63;;;;;;;;;;5022048;28;20056;-65
2022/03/24 09:19:53;;;;;;;54.63;27.50;;;;;;;;;;5022489;28;20169;-65
2022/03/24 09:22:19;;;;;;;58.45;28.65;;;;;;;;;;5021850;28;20049;-65
2022/03/24 09:24:45;;;;;;;57.03;27.35;;;;;;;;;;5021464;28;20124;-65
2022/03/24 09:27:11;;;;;;;52.50;26.38;;;;;;;;;;5020334;28;20038;-66
2022/03/24 09:29:37;;;;;;;55.78;27.65;;;;;;;;;;5001183;28;20049;-65
2022/03/24 09:32:04;;;;;;;60.72;28.48;;;;;;;;;;5020674;28;20053;-65
2022/03/24 09:34:30;;;;;;;55.40;27.67;;;;;;;;;;5022178;28;20041;-65
2022/03/24 09:36:56;;;;;;;56.30;28.23;;;;;;;;;;5021587;28;20099;-65
2022/03/24 09:39:23;;;;;;;50.22;27.35;;;;;;;;;;5022845;28;20099;-65
2022/03/24 09:41:49;;;;;;;54.15;29.13;;;;;;;;;;5019952;28;20068;-65
2022/03/24 09:44:15;;;;;;;57.75;27.58;;;;;;;;;;5022117;28;20085;-65
2022/03/24 09:46:43;;;;;;;57.17;27.75;;;;;;;;;;5003088;28;20556;-65
2022/03/24 09:49:10;;;;;;;52.95;25.50;;;;;;;;;;5020852;28;20137;-65
2022/03/24 09:51:39;;;;;;;53.42;27.98;;;;;;;;;;5022186;28;20060;-65
2022/03/24 09:54:06;;;;;;;55.75;27.38;;;;;;;;;;5020282;28;20128;-65
2022/03/24 09:56:33;;;;;;;52.42;27.27;;;;;;;;;;5021200;28;20085;-65
2022/03/24 09:58:59;;;;;;;51.15;27.88;;;;;;;;;;5021361;28;20068;-65
2022/03/24 10:01:25;;;;;;;54.58;27.75;;;;;;;;;;5022145;28;20060;-65
2022/03/24 10:04:02;;;;;;;52.03;25.63;;;;;;;;;;5021894;28;20582;-65
2022/03/24 10:06:29;;;;;;;50.42;25.65;;;;;;;;;;5021114;28;20049;-65
2022/03/24 10:08:55;;;;;;;58.50;26.85;;;;;;;;;;5020526;28;20395;-65
2022/03/24 10:11:24;;;;;;;55.10;26.15;;;;;;;;;;5021695;28;20125;-65
2022/03/24 10:13:53;;;;;;;51.13;25.25;;;;;;;;;;5021014;28;20060;-65
2022/03/24 10:16:33;;;;;;;51.75;25.63;;;;;;;;;;5021744;28;20503;-65
2022/03/24 10:19:01;;;;;;;50.72;23.52;;;;;;;;;;5021316;28;20384;-65
2022/03/24 10:21:29;;;;;;;56.65;25.30;;;;;;;;;;5020906;28;20941;-65
2022/03/24 10:24:00;;;;;;;53.30;24.33;;;;;;;;;;5003335;28;20054;-65
2022/03/24 10:26:40;;;;;;;48.70;23.95;;;;;;;;;;5020312;28;20050;-65
2022/03/24 10:29:06;;;;;;;46.08;23.25;;;;;;;;;;5020530;28;20117;-65
2022/03/24 10:31:34;;;;;;;48.35;22.85;;;;;;;;;;5020150;28;20391;-65
2022/03/24 10:34:00;;;;;;;40.83;21.17;;;;;;;;;;5003250;28;20053;-64
2022/03/24 10:36:27;;;;;;;46.08;23.52;;;;;;;;;;5020443;28;20041;-64
2022/03/24 10:38:54;;;;;;;49.83;22.42;;;;;;;;;;5021681;28;20077;-65
2022/03/24 10:41:22;;;;;;;45.67;22.67;;;;;;;;;;5019317;28;20049;-64
2022/03/24 10:43:50;;;;;;;43.60;21.57;;;;;;;;;;5020375;28;20927;-65
2022/03/24 10:46:17;;;;;;;41.92;22.55;;;;;;;;;;5020272;28;20034;-64
2022/03/24 10:48:43;;;;;;;39.13;21.40;;;;;;;;;;5019675;28;20116;-65
2022/03/24 10:51:10;;;;;;;40.10;20.85;;;;;;;;;;5020839;28;20042;-65
2022/03/24 10:53:44;;;;;;;46.08;21.40;;;;;;;;;;5019159;28;20076;-65
2022/03/24 10:56:16;;;;;;;48.65;19.48;;;;;;;;;;5019808;28;20045;-65
2022/03/24 10:58:44;;;;;;;43.40;21.40;;;;;;;;;;5019413;28;20727;-65
2022/03/24 11:01:11;;;;;;;43.58;18.90;;;;;;;;;;5020345;28;20045;-65
2022/03/24 11:03:39;;;;;;;43.28;19.85;;;;;;;;;;5019976;28;20053;-65
2022/03/24 11:06:10;;;;;;;48.40;18.55;;;;;;;;;;5019256;28;20060;-65
2022/03/24 11:08:36;;;;;;;40.50;19.85;;;;;;;;;;5001609;28;20065;-65
2022/03/24 11:11:06;;;;;;;48.45;19.33;;;;;;;;;;5019185;28;20045;-65
2022/03/24 11:13:40;;;;;;;37.65;18.80;;;;;;;;;;5018312;28;20156;-65
2022/03/24 11:16:08;;;;;;;40.55;18.08;;;;;;;;;;5018638;28;20049;-65
2022/03/24 11:18:35;;;;;;;45.23;18.97;;;;;;;;;;5019223;28;20081;-65
2022/03/24 11:21:03;;;;;;;38.17;18.52;;;;;;;;;;5020045;28;20072;-64
2022/03/24 11:23:34;;;;;;;41.47;17.15;;;;;;;;;;5019975;28;20115;-65
2022/03/24 11:26:02;;;;;;;37.38;18.45;;;;;;;;;;5002321;28;20057;-65
2022/03/24 11:28:28;;;;;;;45.22;16.92;;;;;;;;;;5019087;28;20509;-65
2022/03/24 11:30:54;;;;;;;40.78;16.20;;;;;;;;;;5019296;28;20100;-65
2022/03/24 11:33:21;;;;;;;38.38;17.20;;;;;;;;;;5019557;28;20570;-65
2022/03/24 11:35:53;;;;;;;40.42;18.70;;;;;;;;;;5018954;28;20041;-65
2022/03/24 11:38:20;;;;;;;34.90;14.52;;;;;;;;;;5020265;28;20053;-65
2022/03/24 11:40:47;;;;;;;29.83;15.23;;;;;;;;;;5011532;28;20447;-65
2022/03/24 11:43:16;;;;;;;36.20;16.13;;;;;;;;;;5014534;28;20104;-65
2022/03/24 11:45:52;;;;;;;40.33;16.27;;;;;;;;;;5017436;28;20072;-65
2022/03/24 11:48:30;;;;;;;38.33;14.95;;;;;;;;;;5020104;28;20045;-65
2022/03/24 11:50:56;;;;;;;35.47;16.23;;;;;;;;;;5018705;28;20548;-65
2022/03/24 11:53:28;;;;;;;33.25;15.38;;;;;;;;;;5018729;28;20076;-65
2022/03/24 11:56:01;;;;;;;35.15;15.75;;;;;;;;;;5012203;28;20041;-65
2022/03/24 11:58:28;;;;;;;34.30;16.35;;;;;;;;;;5018358;28;20103;-65
2022/03/24 12:00:55;;;;;;;32.13;15.43;;;;;;;;;;5015331;28;20117;-65
2022/03/24 12:03:38;;;;;;;28.40;14.55;;;;;;;;;;5019504;28;20053;-65
2022/03/24 12:06:05;;;;;;;30.77;15.02;;;;;;;;;;5008795;28;20053;-66
2022/03/24 12:08:42;;;;;;;36.88;16.27;;;;;;;;;;5016717;28;20045;-65
2022/03/24 12:11:27;;;;;;;37.90;15.90;;;;;;;;;;5016432;28;20057;-65
2022/03/24 12:13:55;;;;;;;34.85;15.20;;;;;;;;;;5014594;28;20150;-65
2022/03/24 12:16:24;;;;;;;38.95;15.45;;;;;;;;;;5002053;28;20163;-65
2022/03/24 12:18:51;;;;;;;30.67;15.38;;;;;;;;;;4995251;28;20059;-64
2022/03/24 12:21:20;;;;;;;31.00;14.48;;;;;;;;;;5004186;28;20033;-64
2022/03/24 12:24:02;;;;;;;32.92;12.88;;;;;;;;;;5019210;28;20045;-65
2022/03/24 12:26:30;;;;;;;28.45;12.52;;;;;;;;;;5017557;28;20479;-64
2022/03/24 12:29:11;;;;;;;32.17;13.68;;;;;;;;;;5020283;28;20037;-64
2022/03/24 12:31:54;;;;;;;33.83;13.55;;;;;;;;;;5006485;28;20054;-64
2022/03/24 12:34:21;;;;;;;30.90;15.40;;;;;;;;;;5003197;28;20061;-64
2022/03/24 12:36:48;;;;;;;30.40;15.32;;;;;;;;;;5003038;28;20116;-64
2022/03/24 12:39:30;;;;;;;32.40;16.10;;;;;;;;;;5002210;28;20054;-65
2022/03/24 12:42:03;;;;;;;35.58;16.00;;;;;;;;;;5001509;28;20042;-64
2022/03/24 12:44:49;;;;;;;33.42;15.38;;;;;;;;;;5003055;28;20058;-64
2022/03/24 12:47:31;;;;;;;38.30;16.85;;;;;;;;;;5002875;28;20157;-64
2022/03/24 12:49:58;;;;;;;38.88;17.55;;;;;;;;;;5002752;28;20104;-65
2022/03/24 12:52:47;;;;;;;45.47;17.73;;;;;;;;;;5014553;28;20087;-64
2022/03/24 12:55:23;;;;;;;37.42;17.50;;;;;;;;;;5022118;28;20136;-64
2022/03/24 12:57:58;;;;;;;37.25;18.63;;;;;;;;;;5003727;28;20049;-64
2022/03/24 13:00:26;;;;;;;39.53;17.85;;;;;;;;;;5022755;28;20049;-64
2022/03/24 13:02:53;;;;;;;31.30;16.70;;;;;;;;;;5003034;28;20080;-64
2022/03/24 13:05:25;;;;;;;33.03;17.75;;;;;;;;;;5001645;28;20487;-64
2022/03/24 13:07:52;;;;;;;37.05;17.60;;;;;;;;;;5002543;28;20602;-64
2022/03/24 13:10:19;;;;;;;37.20;17.45;;;;;;;;;;5002841;28;20052;-64
2022/03/24 13:12:47;;;;;;;36.80;18.90;;;;;;;;;;5012834;28;20562;-64
2022/03/24 13:15:28;;;;;;;35.55;18.00;;;;;;;;;;5022318;28;20045;-64
2022/03/24 13:17:55;;;;;;;41.03;17.27;;;;;;;;;;5023320;28;20045;-64
2022/03/24 13:20:22;;;;;;;38.07;17.87;;;;;;;;;;5021839;28;20037;-64
2022/03/24 13:22:49;;;;;;;34.13;17.48;;;;;;;;;;5022206;28;20049;-64
2022/03/24 13:25:17;;;;;;;32.38;16.27;;;;;;;;;;5010098;28;20057;-64
2022/03/24 13:27:45;;;;;;;44.17;16.83;;;;;;;;;;4982974;28;20042;-64
2022/03/24 13:30:14;;;;;;;33.47;17.45;;;;;;;;;;5002090;28;20092;-64
2022/03/24 13:32:41;;;;;;;30.35;15.73;;;;;;;;;;4975715;28;20057;-64
2022/03/24 13:35:10;;;;;;;30.30;15.85;;;;;;;;;;5004926;28;20096;-64
2022/03/24 13:37:44;;;;;;;32.65;16.05;;;;;;;;;;5010535;28;20044;-64
2022/03/24 13:40:14;;;;;;;40.28;18.17;;;;;;;;;;5013828;28;20077;-64
2022/03/24 13:42:41;;;;;;;37.58;20.05;;;;;;;;;;5001071;28;20564;-64
2022/03/24 13:45:10;;;;;;;38.20;20.02;;;;;;;;;;5007392;28;20034;-64
2022/03/24 13:47:36;;;;;;;;;;;;;;;;;;5004382;28;20053;-65
2022/03/24 13:50:04;;;;;;;39.20;19.23;;;;;;;;;;5007629;28;19920;-65
2022/03/24 13:52:31;;;;;;;39.55;18.38;;;;;;;;;;5010003;28;20491;-64
2022/03/24 13:54:59;;;;;;;34.53;17.70;;;;;;;;;;5004079;28;20050;-64
2022/03/24 13:57:26;;;;;;;35.50;17.85;;;;;;;;;;5008602;28;20034;-64
2022/03/24 13:59:52;;;;;;;36.08;18.10;;;;;;;;;;5011990;28;20399;-63
2022/03/24 14:02:23;;;;;;;35.85;17.27;;;;;;;;;;5012036;28;20077;-65
2022/03/24 14:05:02;;;;;;;33.00;19.77;;;;;;;;;;5011803;28;20050;-65
2022/03/24 14:07:29;;;;;;;39.75;19.85;;;;;;;;;;5009568;28;20041;-64
2022/03/24 14:09:55;;;;;;;34.95;18.75;;;;;;;;;;5021173;28;20128;-65
2022/03/24 14:12:25;;;;;;;30.92;17.98;;;;;;;;;;5012216;28;20057;-65
2022/03/24 14:14:51;;;;;;;38.28;19.17;;;;;;;;;;5001752;28;20561;-65
2022/03/24 14:17:25;;;;;;;31.48;19.13;;;;;;;;;;5000901;28;20061;-64
2022/03/24 14:19:53;;;;;;;38.17;20.50;;;;;;;;;;5001033;28;20058;-65
2022/03/24 14:22:21;;;;;;;39.72;21.35;;;;;;;;;;5001408;28;20037;-65
2022/03/24 14:24:50;;;;;;;42.83;22.90;;;;;;;;;;5000860;28;20061;-65